sensor_id;sensor_type;location;lat;lon;timestamp;P1;durP1;ratioP1;P2;durP2;ratioP2
73938;SDS011;62291;47.554;8.504;2023-03-05T00:02:07;75.72;;;35.30;;
73938;SDS011;62291;47.554;8.504;2023-03-05T00:04:32;83.57;;;35.78;;
73938;SDS011;62291;47.554;8.504;2023-03-05T00:06:58;76.25;;;35.72;;
73938;SDS011;62291;47.554;8.504;2023-03-05T00:09:23;79.68;;;36.13;;
73938;SDS011;62291;47.554;8.504;2023-03-05T00:11:49;79.28;;;36.38;;
73938;SDS011;62291;47.554;8.504;2023-03-05T00:14:15;73.60;;;35.35;;
73938;SDS011;62291;47.554;8.504;2023-03-05T00:16:40;79.88;;;37.15;;
73938;SDS011;62291;47.554;8.504;2023-03-05T00:19:06;74.80;;;36.85;;
73938;SDS011;62291;47.554;8.504;2023-03-05T00:24:00;76.90;;;36.33;;
73938;SDS011;62291;47.554;8.504;2023-03-05T00:26:26;78.40;;;37.08;;
73938;SDS011;62291;47.554;8.504;2023-03-05T00:28:54;77.63;;;35.58;;
73938;SDS011;62291;47.554;8.504;2023-03-05T00:31:22;76.47;;;35.63;;
73938;SDS011;62291;47.554;8.504;2023-03-05T00:33:52;81.78;;;36.58;;
73938;SDS011;62291;47.554;8.504;2023-03-05T00:36:19;74.90;;;36.42;;
73938;SDS011;62291;47.554;8.504;2023-03-05T00:38:45;88.38;;;39.08;;
73938;SDS011;62291;47.554;8.504;2023-03-05T00:41:11;74.90;;;35.90;;
73938;SDS011;62291;47.554;8.504;2023-03-05T00:43:36;81.72;;;37.17;;
73938;SDS011;62291;47.554;8.504;2023-03-05T00:46:02;80.50;;;37.22;;
73938;SDS011;62291;47.554;8.504;2023-03-05T00:48:28;77.03;;;36.40;;
73938;SDS011;62291;47.554;8.504;2023-03-05T00:50:54;78.25;;;36.90;;
73938;SDS011;62291;47.554;8.504;2023-03-05T00:53:19;78.93;;;37.00;;
73938;SDS011;62291;47.554;8.504;2023-03-05T00:55:46;79.57;;;35.97;;
73938;SDS011;62291;47.554;8.504;2023-03-05T00:58:11;76.45;;;36.45;;
73938;SDS011;62291;47.554;8.504;2023-03-05T01:00:37;78.82;;;36.65;;
73938;SDS011;62291;47.554;8.504;2023-03-05T01:03:03;77.07;;;36.17;;
73938;SDS011;62291;47.554;8.504;2023-03-05T01:05:28;77.72;;;36.30;;
73938;SDS011;62291;47.554;8.504;2023-03-05T01:07:54;76.90;;;35.45;;
73938;SDS011;62291;47.554;8.504;2023-03-05T01:10:22;73.75;;;35.28;;
73938;SDS011;62291;47.554;8.504;2023-03-05T01:12:52;78.60;;;35.92;;
73938;SDS011;62291;47.554;8.504;2023-03-05T01:15:19;75.15;;;34.38;;
73938;SDS011;62291;47.554;8.504;2023-03-05T01:17:44;72.70;;;36.45;;
73938;SDS011;62291;47.554;8.504;2023-03-05T01:20:11;74.38;;;34.33;;
73938;SDS011;62291;47.554;8.504;2023-03-05T01:22:38;83.00;;;37.92;;
73938;SDS011;62291;47.554;8.504;2023-03-05T01:25:05;76.93;;;36.47;;
73938;SDS011;62291;47.554;8.504;2023-03-05T01:27:31;74.07;;;35.13;;
73938;SDS011;62291;47.554;8.504;2023-03-05T01:29:57;74.53;;;35.35;;
73938;SDS011;62291;47.554;8.504;2023-03-05T01:32:23;78.97;;;36.67;;
73938;SDS011;62291;47.554;8.504;2023-03-05T01:34:49;76.75;;;35.17;;
73938;SDS011;62291;47.554;8.504;2023-03-05T01:37:14;73.63;;;36.38;;
73938;SDS011;62291;47.554;8.504;2023-03-05T01:39:40;79.72;;;36.17;;
73938;SDS011;62291;47.554;8.504;2023-03-05T01:42:05;75.60;;;35.40;;
73938;SDS011;62291;47.554;8.504;2023-03-05T01:44:32;76.05;;;36.15;;
73938;SDS011;62291;47.554;8.504;2023-03-05T01:46:58;80.05;;;37.28;;
73938;SDS011;62291;47.554;8.504;2023-03-05T01:52:05;79.15;;;35.97;;
73938;SDS011;62291;47.554;8.504;2023-03-05T01:55:00;74.32;;;33.85;;
73938;SDS011;62291;47.554;8.504;2023-03-05T02:00:05;76.45;;;35.95;;
73938;SDS011;62291;47.554;8.504;2023-03-05T02:02:43;78.55;;;36.03;;
73938;SDS011;62291;47.554;8.504;2023-03-05T02:07:57;73.35;;;35.03;;
73938;SDS011;62291;47.554;8.504;2023-03-05T02:10:30;80.65;;;36.20;;
73938;SDS011;62291;47.554;8.504;2023-03-05T02:13:05;75.60;;;35.22;;
73938;SDS011;62291;47.554;8.504;2023-03-05T02:15:34;77.53;;;35.75;;
73938;SDS011;62291;47.554;8.504;2023-03-05T02:18:00;80.15;;;36.47;;
73938;SDS011;62291;47.554;8.504;2023-03-05T02:20:27;79.22;;;36.33;;
73938;SDS011;62291;47.554;8.504;2023-03-05T02:22:55;79.28;;;36.65;;
73938;SDS011;62291;47.554;8.504;2023-03-05T02:25:22;80.05;;;35.10;;
73938;SDS011;62291;47.554;8.504;2023-03-05T02:28:01;78.68;;;35.42;;
73938;SDS011;62291;47.554;8.504;2023-03-05T02:30:32;77.65;;;36.90;;
73938;SDS011;62291;47.554;8.504;2023-03-05T02:32:58;76.13;;;35.92;;
73938;SDS011;62291;47.554;8.504;2023-03-05T02:35:24;77.15;;;35.83;;
73938;SDS011;62291;47.554;8.504;2023-03-05T02:37:49;71.05;;;34.83;;
73938;SDS011;62291;47.554;8.504;2023-03-05T02:40:15;73.85;;;36.03;;
73938;SDS011;62291;47.554;8.504;2023-03-05T02:42:41;81.18;;;36.35;;
73938;SDS011;62291;47.554;8.504;2023-03-05T02:45:08;77.35;;;36.85;;
73938;SDS011;62291;47.554;8.504;2023-03-05T02:47:35;77.38;;;35.55;;
73938;SDS011;62291;47.554;8.504;2023-03-05T02:50:01;79.82;;;35.95;;
73938;SDS011;62291;47.554;8.504;2023-03-05T02:52:27;71.25;;;33.80;;
73938;SDS011;62291;47.554;8.504;2023-03-05T02:54:53;75.45;;;33.85;;
73938;SDS011;62291;47.554;8.504;2023-03-05T02:57:19;79.15;;;34.50;;
73938;SDS011;62291;47.554;8.504;2023-03-05T02:59:45;73.50;;;34.47;;
73938;SDS011;62291;47.554;8.504;2023-03-05T03:02:11;77.72;;;36.17;;
73938;SDS011;62291;47.554;8.504;2023-03-05T03:04:37;75.57;;;34.92;;
73938;SDS011;62291;47.554;8.504;2023-03-05T03:07:03;76.22;;;33.63;;
73938;SDS011;62291;47.554;8.504;2023-03-05T03:09:29;81.85;;;35.95;;
73938;SDS011;62291;47.554;8.504;2023-03-05T03:11:54;74.82;;;34.35;;
73938;SDS011;62291;47.554;8.504;2023-03-05T03:14:20;82.60;;;37.70;;
73938;SDS011;62291;47.554;8.504;2023-03-05T03:16:46;75.03;;;33.72;;
73938;SDS011;62291;47.554;8.504;2023-03-05T03:19:12;79.35;;;35.00;;
73938;SDS011;62291;47.554;8.504;2023-03-05T03:21:38;79.60;;;34.53;;
73938;SDS011;62291;47.554;8.504;2023-03-05T03:24:03;78.10;;;35.65;;
73938;SDS011;62291;47.554;8.504;2023-03-05T03:26:29;87.38;;;36.75;;
73938;SDS011;62291;47.554;8.504;2023-03-05T03:28:56;83.05;;;35.92;;
73938;SDS011;62291;47.554;8.504;2023-03-05T03:31:21;81.38;;;35.45;;
73938;SDS011;62291;47.554;8.504;2023-03-05T03:33:48;80.05;;;35.40;;
73938;SDS011;62291;47.554;8.504;2023-03-05T03:36:14;76.25;;;33.97;;
73938;SDS011;62291;47.554;8.504;2023-03-05T03:38:39;76.15;;;34.50;;
73938;SDS011;62291;47.554;8.504;2023-03-05T03:41:05;81.43;;;34.92;;
73938;SDS011;62291;47.554;8.504;2023-03-05T03:43:32;77.20;;;34.75;;
73938;SDS011;62291;47.554;8.504;2023-03-05T03:45:58;83.63;;;35.65;;
73938;SDS011;62291;47.554;8.504;2023-03-05T03:48:24;80.25;;;36.25;;
73938;SDS011;62291;47.554;8.504;2023-03-05T03:50:50;83.75;;;36.40;;
73938;SDS011;62291;47.554;8.504;2023-03-05T03:53:16;81.60;;;36.15;;
73938;SDS011;62291;47.554;8.504;2023-03-05T03:55:41;79.30;;;36.17;;
73938;SDS011;62291;47.554;8.504;2023-03-05T03:58:08;85.13;;;37.47;;
73938;SDS011;62291;47.554;8.504;2023-03-05T04:00:34;82.60;;;36.80;;
73938;SDS011;62291;47.554;8.504;2023-03-05T04:03:00;83.28;;;36.67;;
73938;SDS011;62291;47.554;8.504;2023-03-05T04:05:26;82.63;;;36.45;;
73938;SDS011;62291;47.554;8.504;2023-03-05T04:07:52;86.28;;;37.03;;
73938;SDS011;62291;47.554;8.504;2023-03-05T04:10:17;84.28;;;36.28;;
73938;SDS011;62291;47.554;8.504;2023-03-05T04:12:43;82.03;;;37.28;;
73938;SDS011;62291;47.554;8.504;2023-03-05T04:15:10;87.43;;;38.08;;
73938;SDS011;62291;47.554;8.504;2023-03-05T04:17:36;82.00;;;36.03;;
73938;SDS011;62291;47.554;8.504;2023-03-05T04:20:02;91.30;;;38.05;;
73938;SDS011;62291;47.554;8.504;2023-03-05T04:22:29;84.72;;;37.47;;
73938;SDS011;62291;47.554;8.504;2023-03-05T04:24:55;89.47;;;36.92;;
73938;SDS011;62291;47.554;8.504;2023-03-05T04:27:21;83.00;;;36.83;;
73938;SDS011;62291;47.554;8.504;2023-03-05T04:29:46;82.88;;;36.17;;
73938;SDS011;62291;47.554;8.504;2023-03-05T04:32:12;83.90;;;36.10;;
73938;SDS011;62291;47.554;8.504;2023-03-05T04:34:38;86.53;;;37.47;;
73938;SDS011;62291;47.554;8.504;2023-03-05T04:37:03;84.85;;;36.67;;
73938;SDS011;62291;47.554;8.504;2023-03-05T04:39:29;88.22;;;38.38;;
73938;SDS011;62291;47.554;8.504;2023-03-05T04:41:55;87.93;;;38.20;;
73938;SDS011;62291;47.554;8.504;2023-03-05T04:44:20;89.65;;;39.25;;
73938;SDS011;62291;47.554;8.504;2023-03-05T04:46:47;84.65;;;38.35;;
73938;SDS011;62291;47.554;8.504;2023-03-05T04:49:13;85.85;;;37.70;;
73938;SDS011;62291;47.554;8.504;2023-03-05T04:51:39;90.20;;;37.97;;
73938;SDS011;62291;47.554;8.504;2023-03-05T04:54:06;81.03;;;36.45;;
73938;SDS011;62291;47.554;8.504;2023-03-05T04:56:32;90.20;;;37.83;;
73938;SDS011;62291;47.554;8.504;2023-03-05T04:58:58;86.95;;;38.30;;
73938;SDS011;62291;47.554;8.504;2023-03-05T05:01:23;91.20;;;37.90;;
73938;SDS011;62291;47.554;8.504;2023-03-05T05:03:49;86.57;;;37.63;;
73938;SDS011;62291;47.554;8.504;2023-03-05T05:06:15;89.72;;;38.50;;
73938;SDS011;62291;47.554;8.504;2023-03-05T05:08:40;92.30;;;38.55;;
73938;SDS011;62291;47.554;8.504;2023-03-05T05:11:07;86.35;;;37.47;;
73938;SDS011;62291;47.554;8.504;2023-03-05T05:13:36;87.60;;;37.40;;
73938;SDS011;62291;47.554;8.504;2023-03-05T05:16:04;96.10;;;39.65;;
73938;SDS011;62291;47.554;8.504;2023-03-05T05:18:31;94.05;;;37.25;;
73938;SDS011;62291;47.554;8.504;2023-03-05T05:20:56;91.75;;;38.63;;
73938;SDS011;62291;47.554;8.504;2023-03-05T05:23:22;90.65;;;38.15;;
73938;SDS011;62291;47.554;8.504;2023-03-05T05:25:55;93.75;;;36.92;;
73938;SDS011;62291;47.554;8.504;2023-03-05T05:28:21;87.93;;;37.05;;
73938;SDS011;62291;47.554;8.504;2023-03-05T05:30:47;89.60;;;36.53;;
73938;SDS011;62291;47.554;8.504;2023-03-05T05:33:13;86.82;;;36.90;;
73938;SDS011;62291;47.554;8.504;2023-03-05T05:35:38;88.05;;;37.28;;
73938;SDS011;62291;47.554;8.504;2023-03-05T05:38:04;99.13;;;46.28;;
73938;SDS011;62291;47.554;8.504;2023-03-05T05:40:29;120.25;;;51.03;;
73938;SDS011;62291;47.554;8.504;2023-03-05T05:42:55;114.53;;;49.35;;
73938;SDS011;62291;47.554;8.504;2023-03-05T05:45:21;141.43;;;60.45;;
73938;SDS011;62291;47.554;8.504;2023-03-05T05:47:46;139.52;;;57.83;;
73938;SDS011;62291;47.554;8.504;2023-03-05T05:50:12;129.35;;;54.05;;
73938;SDS011;62291;47.554;8.504;2023-03-05T05:52:38;123.30;;;51.20;;
73938;SDS011;62291;47.554;8.504;2023-03-05T05:55:04;119.45;;;52.17;;
73938;SDS011;62291;47.554;8.504;2023-03-05T05:57:30;99.22;;;40.88;;
73938;SDS011;62291;47.554;8.504;2023-03-05T05:59:56;97.88;;;40.20;;
73938;SDS011;62291;47.554;8.504;2023-03-05T06:02:22;95.40;;;38.95;;
73938;SDS011;62291;47.554;8.504;2023-03-05T06:04:47;94.47;;;38.38;;
73938;SDS011;62291;47.554;8.504;2023-03-05T06:07:13;100.82;;;39.05;;
73938;SDS011;62291;47.554;8.504;2023-03-05T06:09:39;95.40;;;37.28;;
73938;SDS011;62291;47.554;8.504;2023-03-05T06:12:04;90.70;;;37.85;;
73938;SDS011;62291;47.554;8.504;2023-03-05T06:14:31;93.97;;;39.42;;
73938;SDS011;62291;47.554;8.504;2023-03-05T06:16:56;90.30;;;37.90;;
73938;SDS011;62291;47.554;8.504;2023-03-05T06:19:22;95.72;;;39.75;;
73938;SDS011;62291;47.554;8.504;2023-03-05T06:21:48;92.72;;;38.72;;
73938;SDS011;62291;47.554;8.504;2023-03-05T06:24:13;91.53;;;37.85;;
73938;SDS011;62291;47.554;8.504;2023-03-05T06:26:39;89.75;;;36.10;;
73938;SDS011;62291;47.554;8.504;2023-03-05T06:29:05;85.47;;;35.55;;
73938;SDS011;62291;47.554;8.504;2023-03-05T06:31:30;90.07;;;37.45;;
73938;SDS011;62291;47.554;8.504;2023-03-05T06:33:57;87.15;;;37.55;;
73938;SDS011;62291;47.554;8.504;2023-03-05T06:36:28;99.67;;;40.73;;
73938;SDS011;62291;47.554;8.504;2023-03-05T06:38:54;91.28;;;37.25;;
73938;SDS011;62291;47.554;8.504;2023-03-05T06:41:21;87.72;;;35.65;;
73938;SDS011;62291;47.554;8.504;2023-03-05T06:43:52;90.57;;;38.53;;
73938;SDS011;62291;47.554;8.504;2023-03-05T06:46:31;93.00;;;39.00;;
73938;SDS011;62291;47.554;8.504;2023-03-05T06:49:00;100.75;;;39.78;;
73938;SDS011;62291;47.554;8.504;2023-03-05T06:51:27;93.25;;;38.90;;
73938;SDS011;62291;47.554;8.504;2023-03-05T06:54:05;89.82;;;36.03;;
73938;SDS011;62291;47.554;8.504;2023-03-05T06:56:34;98.03;;;39.30;;
73938;SDS011;62291;47.554;8.504;2023-03-05T06:59:01;94.53;;;36.95;;
73938;SDS011;62291;47.554;8.504;2023-03-05T07:01:26;86.90;;;37.78;;
73938;SDS011;62291;47.554;8.504;2023-03-05T07:03:53;87.25;;;35.72;;
73938;SDS011;62291;47.554;8.504;2023-03-05T07:06:19;88.57;;;36.95;;
73938;SDS011;62291;47.554;8.504;2023-03-05T07:08:46;83.70;;;36.03;;
73938;SDS011;62291;47.554;8.504;2023-03-05T07:11:13;86.15;;;36.15;;
73938;SDS011;62291;47.554;8.504;2023-03-05T07:13:40;92.05;;;38.55;;
73938;SDS011;62291;47.554;8.504;2023-03-05T07:16:10;83.22;;;38.50;;
73938;SDS011;62291;47.554;8.504;2023-03-05T07:18:39;89.70;;;38.83;;
73938;SDS011;62291;47.554;8.504;2023-03-05T07:21:06;95.32;;;40.00;;
73938;SDS011;62291;47.554;8.504;2023-03-05T07:23:33;85.88;;;37.17;;
73938;SDS011;62291;47.554;8.504;2023-03-05T07:26:00;90.05;;;37.92;;
73938;SDS011;62291;47.554;8.504;2023-03-05T07:28:27;90.85;;;39.03;;
73938;SDS011;62291;47.554;8.504;2023-03-05T07:31:00;88.20;;;38.13;;
73938;SDS011;62291;47.554;8.504;2023-03-05T07:33:27;101.00;;;41.08;;
73938;SDS011;62291;47.554;8.504;2023-03-05T07:35:53;94.97;;;38.80;;
73938;SDS011;62291;47.554;8.504;2023-03-05T07:38:19;91.82;;;37.63;;
73938;SDS011;62291;47.554;8.504;2023-03-05T07:40:45;87.57;;;38.25;;
73938;SDS011;62291;47.554;8.504;2023-03-05T07:43:12;92.15;;;39.88;;
73938;SDS011;62291;47.554;8.504;2023-03-05T07:45:38;90.13;;;38.45;;
73938;SDS011;62291;47.554;8.504;2023-03-05T07:48:05;93.25;;;38.72;;
73938;SDS011;62291;47.554;8.504;2023-03-05T07:50:31;82.25;;;35.85;;
73938;SDS011;62291;47.554;8.504;2023-03-05T07:52:57;84.05;;;36.13;;
73938;SDS011;62291;47.554;8.504;2023-03-05T07:55:23;83.55;;;36.97;;
73938;SDS011;62291;47.554;8.504;2023-03-05T07:57:49;88.75;;;42.30;;
73938;SDS011;62291;47.554;8.504;2023-03-05T08:00:14;87.07;;;41.13;;
73938;SDS011;62291;47.554;8.504;2023-03-05T08:02:40;87.65;;;41.60;;
73938;SDS011;62291;47.554;8.504;2023-03-05T08:05:06;85.60;;;38.55;;
73938;SDS011;62291;47.554;8.504;2023-03-05T08:07:32;87.57;;;39.90;;
73938;SDS011;62291;47.554;8.504;2023-03-05T08:09:57;124.93;;;56.20;;
73938;SDS011;62291;47.554;8.504;2023-03-05T08:12:23;120.75;;;57.55;;
73938;SDS011;62291;47.554;8.504;2023-03-05T08:14:49;101.00;;;49.10;;
73938;SDS011;62291;47.554;8.504;2023-03-05T08:17:15;106.53;;;50.40;;
73938;SDS011;62291;47.554;8.504;2023-03-05T08:19:41;83.95;;;38.35;;
73938;SDS011;62291;47.554;8.504;2023-03-05T08:22:06;79.68;;;37.58;;
73938;SDS011;62291;47.554;8.504;2023-03-05T08:24:32;81.55;;;36.55;;
73938;SDS011;62291;47.554;8.504;2023-03-05T08:26:58;78.18;;;36.63;;
73938;SDS011;62291;47.554;8.504;2023-03-05T08:29:24;70.65;;;35.42;;
73938;SDS011;62291;47.554;8.504;2023-03-05T08:31:50;78.60;;;35.83;;
73938;SDS011;62291;47.554;8.504;2023-03-05T08:34:17;76.68;;;34.58;;
73938;SDS011;62291;47.554;8.504;2023-03-05T08:36:44;70.13;;;32.75;;
73938;SDS011;62291;47.554;8.504;2023-03-05T08:39:11;67.25;;;33.38;;
73938;SDS011;62291;47.554;8.504;2023-03-05T08:41:37;78.18;;;37.28;;
73938;SDS011;62291;47.554;8.504;2023-03-05T08:44:03;70.38;;;35.67;;
73938;SDS011;62291;47.554;8.504;2023-03-05T08:46:29;67.10;;;34.90;;
73938;SDS011;62291;47.554;8.504;2023-03-05T08:48:54;72.07;;;34.58;;
73938;SDS011;62291;47.554;8.504;2023-03-05T08:51:21;71.18;;;34.88;;
73938;SDS011;62291;47.554;8.504;2023-03-05T08:53:52;68.43;;;33.00;;
73938;SDS011;62291;47.554;8.504;2023-03-05T08:56:19;69.55;;;33.78;;
73938;SDS011;62291;47.554;8.504;2023-03-05T08:58:45;65.25;;;32.38;;
73938;SDS011;62291;47.554;8.504;2023-03-05T09:01:11;67.43;;;33.22;;
73938;SDS011;62291;47.554;8.504;2023-03-05T09:03:38;62.40;;;31.60;;
73938;SDS011;62291;47.554;8.504;2023-03-05T09:06:05;70.90;;;33.40;;
73938;SDS011;62291;47.554;8.504;2023-03-05T09:08:33;61.25;;;31.70;;
73938;SDS011;62291;47.554;8.504;2023-03-05T09:11:03;59.42;;;30.75;;
73938;SDS011;62291;47.554;8.504;2023-03-05T09:13:30;59.50;;;30.92;;
73938;SDS011;62291;47.554;8.504;2023-03-05T09:15:57;61.58;;;30.73;;
73938;SDS011;62291;47.554;8.504;2023-03-05T09:18:25;59.25;;;31.08;;
73938;SDS011;62291;47.554;8.504;2023-03-05T09:20:51;56.30;;;29.42;;
73938;SDS011;62291;47.554;8.504;2023-03-05T09:23:17;56.92;;;30.05;;
73938;SDS011;62291;47.554;8.504;2023-03-05T09:25:43;60.90;;;30.83;;
73938;SDS011;62291;47.554;8.504;2023-03-05T09:28:09;53.60;;;28.88;;
73938;SDS011;62291;47.554;8.504;2023-03-05T09:30:34;54.17;;;29.42;;
73938;SDS011;62291;47.554;8.504;2023-03-05T09:33:00;57.35;;;30.10;;
73938;SDS011;62291;47.554;8.504;2023-03-05T09:35:27;55.05;;;29.90;;
73938;SDS011;62291;47.554;8.504;2023-03-05T09:37:53;53.30;;;29.17;;
73938;SDS011;62291;47.554;8.504;2023-03-05T09:40:19;58.03;;;30.13;;
73938;SDS011;62291;47.554;8.504;2023-03-05T09:43:00;57.70;;;31.55;;
73938;SDS011;62291;47.554;8.504;2023-03-05T09:45:56;57.10;;;30.00;;
73938;SDS011;62291;47.554;8.504;2023-03-05T09:49:06;55.00;;;31.50;;
73938;SDS011;62291;47.554;8.504;2023-03-05T09:51:40;58.10;;;32.17;;
73938;SDS011;62291;47.554;8.504;2023-03-05T09:54:21;59.63;;;31.85;;
73938;SDS011;62291;47.554;8.504;2023-03-05T09:56:53;55.90;;;31.85;;
73938;SDS011;62291;47.554;8.504;2023-03-05T09:59:30;52.53;;;31.60;;
73938;SDS011;62291;47.554;8.504;2023-03-05T10:02:31;50.55;;;31.80;;
73938;SDS011;62291;47.554;8.504;2023-03-05T10:05:17;52.78;;;32.10;;
73938;SDS011;62291;47.554;8.504;2023-03-05T10:07:54;53.83;;;33.60;;
73938;SDS011;62291;47.554;8.504;2023-03-05T10:10:33;58.03;;;34.78;;
73938;SDS011;62291;47.554;8.504;2023-03-05T10:13:01;60.22;;;35.25;;
73938;SDS011;62291;47.554;8.504;2023-03-05T10:15:39;60.53;;;35.55;;
73938;SDS011;62291;47.554;8.504;2023-03-05T10:18:34;56.20;;;33.92;;
73938;SDS011;62291;47.554;8.504;2023-03-05T10:21:30;56.88;;;34.63;;
73938;SDS011;62291;47.554;8.504;2023-03-05T10:27:22;62.97;;;37.33;;
73938;SDS011;62291;47.554;8.504;2023-03-05T10:30:05;67.85;;;37.72;;
73938;SDS011;62291;47.554;8.504;2023-03-05T10:35:16;67.63;;;36.43;;
73938;SDS011;62291;47.554;8.504;2023-03-05T10:37:54;65.72;;;36.90;;
73938;SDS011;62291;47.554;8.504;2023-03-05T10:40:44;70.53;;;38.45;;
73938;SDS011;62291;47.554;8.504;2023-03-05T10:45:42;70.90;;;36.95;;
73938;SDS011;62291;47.554;8.504;2023-03-05T10:48:11;67.05;;;37.85;;
73938;SDS011;62291;47.554;8.504;2023-03-05T10:53:54;66.00;;;34.85;;
73938;SDS011;62291;47.554;8.504;2023-03-05T10:56:24;64.60;;;35.58;;
73938;SDS011;62291;47.554;8.504;2023-03-05T10:58:51;59.67;;;33.40;;
73938;SDS011;62291;47.554;8.504;2023-03-05T11:01:24;59.85;;;33.15;;
73938;SDS011;62291;47.554;8.504;2023-03-05T11:09:27;65.70;;;35.30;;
73938;SDS011;62291;47.554;8.504;2023-03-05T11:14:45;62.83;;;34.03;;
73938;SDS011;62291;47.554;8.504;2023-03-05T11:17:40;63.20;;;33.20;;
73938;SDS011;62291;47.554;8.504;2023-03-05T11:23:02;56.90;;;31.55;;
73938;SDS011;62291;47.554;8.504;2023-03-05T11:28:35;59.65;;;30.35;;
73938;SDS011;62291;47.554;8.504;2023-03-05T11:33:40;55.42;;;29.30;;
73938;SDS011;62291;47.554;8.504;2023-03-05T11:36:24;49.45;;;27.13;;
73938;SDS011;62291;47.554;8.504;2023-03-05T11:38:56;50.33;;;27.27;;
73938;SDS011;62291;47.554;8.504;2023-03-05T11:41:41;45.08;;;23.58;;
73938;SDS011;62291;47.554;8.504;2023-03-05T11:44:37;43.22;;;22.38;;
73938;SDS011;62291;47.554;8.504;2023-03-05T11:47:55;38.10;;;21.80;;
73938;SDS011;62291;47.554;8.504;2023-03-05T11:50:20;47.00;;;23.45;;
73938;SDS011;62291;47.554;8.504;2023-03-05T11:55:21;32.33;;;17.65;;
73938;SDS011;62291;47.554;8.504;2023-03-05T11:58:17;33.83;;;18.15;;
73938;SDS011;62291;47.554;8.504;2023-03-05T12:00:55;26.38;;;16.30;;
73938;SDS011;62291;47.554;8.504;2023-03-05T12:03:24;30.38;;;17.95;;
73938;SDS011;62291;47.554;8.504;2023-03-05T12:05:56;32.38;;;18.25;;
73938;SDS011;62291;47.554;8.504;2023-03-05T12:08:45;28.02;;;17.05;;
73938;SDS011;62291;47.554;8.504;2023-03-05T12:11:16;27.73;;;16.15;;
73938;SDS011;62291;47.554;8.504;2023-03-05T12:13:47;30.48;;;16.95;;
73938;SDS011;62291;47.554;8.504;2023-03-05T12:16:32;28.77;;;16.80;;
73938;SDS011;62291;47.554;8.504;2023-03-05T12:21:43;28.67;;;16.83;;
73938;SDS011;62291;47.554;8.504;2023-03-05T12:32:03;26.98;;;16.48;;
73938;SDS011;62291;47.554;8.504;2023-03-05T12:34:46;27.63;;;17.13;;
73938;SDS011;62291;47.554;8.504;2023-03-05T12:37:55;28.65;;;17.45;;
73938;SDS011;62291;47.554;8.504;2023-03-05T12:42:54;29.80;;;16.88;;
73938;SDS011;62291;47.554;8.504;2023-03-05T12:45:25;27.80;;;16.23;;
73938;SDS011;62291;47.554;8.504;2023-03-05T12:52:54;28.20;;;16.38;;
73938;SDS011;62291;47.554;8.504;2023-03-05T13:01:39;31.38;;;15.85;;
73938;SDS011;62291;47.554;8.504;2023-03-05T13:04:16;26.92;;;14.40;;
73938;SDS011;62291;47.554;8.504;2023-03-05T13:06:56;27.52;;;16.35;;
73938;SDS011;62291;47.554;8.504;2023-03-05T13:09:25;26.63;;;16.50;;
73938;SDS011;62291;47.554;8.504;2023-03-05T13:11:54;27.33;;;16.70;;
73938;SDS011;62291;47.554;8.504;2023-03-05T13:16:54;29.30;;;16.17;;
73938;SDS011;62291;47.554;8.504;2023-03-05T13:19:20;29.00;;;15.77;;
73938;SDS011;62291;47.554;8.504;2023-03-05T13:21:54;29.63;;;16.60;;
73938;SDS011;62291;47.554;8.504;2023-03-05T13:24:22;28.83;;;16.08;;
73938;SDS011;62291;47.554;8.504;2023-03-05T13:26:48;27.08;;;15.07;;
73938;SDS011;62291;47.554;8.504;2023-03-05T13:29:21;26.05;;;15.30;;
73938;SDS011;62291;47.554;8.504;2023-03-05T13:34:24;23.80;;;14.67;;
73938;SDS011;62291;47.554;8.504;2023-03-05T13:36:56;28.95;;;15.57;;
73938;SDS011;62291;47.554;8.504;2023-03-05T13:39:32;25.33;;;15.00;;
73938;SDS011;62291;47.554;8.504;2023-03-05T13:44:27;23.92;;;14.02;;
73938;SDS011;62291;47.554;8.504;2023-03-05T13:47:04;22.92;;;13.48;;
73938;SDS011;62291;47.554;8.504;2023-03-05T13:49:39;22.73;;;13.50;;
73938;SDS011;62291;47.554;8.504;2023-03-05T13:52:04;26.00;;;14.30;;
73938;SDS011;62291;47.554;8.504;2023-03-05T13:54:30;23.30;;;14.30;;
73938;SDS011;62291;47.554;8.504;2023-03-05T13:56:57;22.95;;;13.35;;
73938;SDS011;62291;47.554;8.504;2023-03-05T13:59:26;24.67;;;13.90;;
73938;SDS011;62291;47.554;8.504;2023-03-05T14:01:55;25.30;;;14.88;;
73938;SDS011;62291;47.554;8.504;2023-03-05T14:04:27;25.55;;;14.05;;
73938;SDS011;62291;47.554;8.504;2023-03-05T14:07:03;29.45;;;17.42;;
73938;SDS011;62291;47.554;8.504;2023-03-05T14:09:51;29.75;;;17.15;;
73938;SDS011;62291;47.554;8.504;2023-03-05T14:12:32;29.90;;;18.02;;
73938;SDS011;62291;47.554;8.504;2023-03-05T14:15:02;30.55;;;17.83;;
73938;SDS011;62291;47.554;8.504;2023-03-05T14:20:06;28.55;;;17.73;;
73938;SDS011;62291;47.554;8.504;2023-03-05T14:22:36;31.52;;;16.83;;
73938;SDS011;62291;47.554;8.504;2023-03-05T14:25:03;31.67;;;17.17;;
73938;SDS011;62291;47.554;8.504;2023-03-05T14:27:32;27.08;;;16.50;;
73938;SDS011;62291;47.554;8.504;2023-03-05T14:29:59;28.48;;;16.10;;
73938;SDS011;62291;47.554;8.504;2023-03-05T14:32:30;27.33;;;15.40;;
73938;SDS011;62291;47.554;8.504;2023-03-05T14:35:01;27.05;;;15.13;;
73938;SDS011;62291;47.554;8.504;2023-03-05T14:37:39;26.17;;;15.48;;
73938;SDS011;62291;47.554;8.504;2023-03-05T14:42:55;24.60;;;14.45;;
73938;SDS011;62291;47.554;8.504;2023-03-05T14:45:26;26.15;;;14.55;;
73938;SDS011;62291;47.554;8.504;2023-03-05T14:47:53;26.58;;;14.45;;
73938;SDS011;62291;47.554;8.504;2023-03-05T14:50:27;24.30;;;14.48;;
73938;SDS011;62291;47.554;8.504;2023-03-05T14:53:02;24.27;;;14.68;;
73938;SDS011;62291;47.554;8.504;2023-03-05T14:55:32;23.65;;;13.32;;
73938;SDS011;62291;47.554;8.504;2023-03-05T14:58:12;21.98;;;13.38;;
73938;SDS011;62291;47.554;8.504;2023-03-05T15:00:39;22.20;;;13.30;;
73938;SDS011;62291;47.554;8.504;2023-03-05T15:03:05;26.40;;;14.43;;
73938;SDS011;62291;47.554;8.504;2023-03-05T15:05:34;25.67;;;13.63;;
73938;SDS011;62291;47.554;8.504;2023-03-05T15:08:01;33.97;;;18.02;;
73938;SDS011;62291;47.554;8.504;2023-03-05T15:10:27;32.97;;;17.63;;
73938;SDS011;62291;47.554;8.504;2023-03-05T15:12:53;32.05;;;17.10;;
73938;SDS011;62291;47.554;8.504;2023-03-05T15:15:19;31.08;;;16.95;;
73938;SDS011;62291;47.554;8.504;2023-03-05T15:17:45;27.05;;;15.23;;
73938;SDS011;62291;47.554;8.504;2023-03-05T15:20:23;26.63;;;15.27;;
73938;SDS011;62291;47.554;8.504;2023-03-05T15:22:51;24.83;;;14.18;;
73938;SDS011;62291;47.554;8.504;2023-03-05T15:25:17;23.45;;;13.43;;
73938;SDS011;62291;47.554;8.504;2023-03-05T15:27:44;24.38;;;12.77;;
73938;SDS011;62291;47.554;8.504;2023-03-05T15:32:55;22.67;;;12.98;;
73938;SDS011;62291;47.554;8.504;2023-03-05T15:35:23;22.80;;;12.23;;
73938;SDS011;62291;47.554;8.504;2023-03-05T15:37:49;22.38;;;12.48;;
73938;SDS011;62291;47.554;8.504;2023-03-05T15:40:15;24.00;;;13.20;;
73938;SDS011;62291;47.554;8.504;2023-03-05T15:42:41;22.80;;;12.65;;
73938;SDS011;62291;47.554;8.504;2023-03-05T15:45:07;24.58;;;12.02;;
73938;SDS011;62291;47.554;8.504;2023-03-05T15:47:34;22.73;;;13.07;;
73938;SDS011;62291;47.554;8.504;2023-03-05T15:49:59;19.70;;;12.18;;
73938;SDS011;62291;47.554;8.504;2023-03-05T15:52:25;21.92;;;12.98;;
73938;SDS011;62291;47.554;8.504;2023-03-05T15:54:51;23.48;;;13.38;;